sensor_id;sensor_type;location;lat;lon;timestamp;pressure;altitude;pressure_sealevel;temperature;humidity
51460;BME280;37534;39.772;2.718;2023-02-19T00:01:19;102633.47;;;6.41;100.00
51460;BME280;37534;39.772;2.718;2023-02-19T00:03:52;102624.88;;;6.39;100.00
51460;BME280;37534;39.772;2.718;2023-02-19T00:06:19;102628.31;;;6.38;100.00
51460;BME280;37534;39.772;2.718;2023-02-19T00:08:45;102619.63;;;6.33;100.00
51460;BME280;37534;39.772;2.718;2023-02-19T00:11:16;102619.94;;;6.48;100.00
51460;BME280;37534;39.772;2.718;2023-02-19T00:13:44;102624.16;;;6.44;100.00
51460;BME280;37534;39.772;2.718;2023-02-19T00:16:22;102606.81;;;6.33;100.00
51460;BME280;37534;39.772;2.718;2023-02-19T00:18:49;102604.88;;;6.22;100.00
51460;BME280;37534;39.772;2.718;2023-02-19T00:21:16;102614.97;;;6.16;100.00
51460;BME280;37534;39.772;2.718;2023-02-19T00:23:42;102608.88;;;6.11;100.00
51460;BME280;37534;39.772;2.718;2023-02-19T00:26:11;102618.34;;;6.14;100.00
51460;BME280;37534;39.772;2.718;2023-02-19T00:28:38;102601.34;;;6.17;100.00
51460;BME280;37534;39.772;2.718;2023-02-19T00:31:09;102605.69;;;6.21;100.00
51460;BME280;37534;39.772;2.718;2023-02-19T00:33:39;102601.22;;;6.13;100.00
51460;BME280;37534;39.772;2.718;2023-02-19T00:36:05;102602.97;;;6.14;100.00
51460;BME280;37534;39.772;2.718;2023-02-19T00:38:31;102594.03;;;5.96;100.00
51460;BME280;37534;39.772;2.718;2023-02-19T00:41:00;102606.06;;;5.99;100.00
51460;BME280;37534;39.772;2.718;2023-02-19T00:43:26;102608.63;;;5.99;100.00
51460;BME280;37534;39.772;2.718;2023-02-19T00:45:52;102598.97;;;5.90;100.00
51460;BME280;37534;39.772;2.718;2023-02-19T00:48:17;102603.25;;;5.91;100.00
51460;BME280;37534;39.772;2.718;2023-02-19T00:50:43;102604.16;;;5.93;100.00
51460;BME280;37534;39.772;2.718;2023-02-19T00:53:09;102604.81;;;5.84;100.00
51460;BME280;37534;39.772;2.718;2023-02-19T00:55:34;102597.75;;;5.74;100.00
51460;BME280;37534;39.772;2.718;2023-02-19T00:58:00;102589.09;;;5.69;100.00
51460;BME280;37534;39.772;2.718;2023-02-19T01:00:26;102598.09;;;5.89;100.00
51460;BME280;37534;39.772;2.718;2023-02-19T01:02:51;102594.91;;;5.98;100.00
51460;BME280;37534;39.772;2.718;2023-02-19T01:05:17;102585.66;;;6.03;100.00
51460;BME280;37534;39.772;2.718;2023-02-19T01:07:42;102591.34;;;5.92;100.00
51460;BME280;37534;39.772;2.718;2023-02-19T01:10:08;102573.16;;;5.82;100.00
51460;BME280;37534;39.772;2.718;2023-02-19T01:12:34;102574.91;;;5.83;100.00
51460;BME280;37534;39.772;2.718;2023-02-19T01:14:59;102568.25;;;5.90;100.00
51460;BME280;37534;39.772;2.718;2023-02-19T01:17:25;102559.22;;;5.69;100.00
51460;BME280;37534;39.772;2.718;2023-02-19T01:19:51;102567.63;;;5.64;100.00
51460;BME280;37534;39.772;2.718;2023-02-19T01:22:17;102555.50;;;5.57;100.00
51460;BME280;37534;39.772;2.718;2023-02-19T01:24:43;102554.72;;;5.61;100.00
51460;BME280;37534;39.772;2.718;2023-02-19T01:27:09;102550.63;;;5.67;100.00
51460;BME280;37534;39.772;2.718;2023-02-19T01:29:35;102560.19;;;5.75;100.00
51460;BME280;37534;39.772;2.718;2023-02-19T01:32:00;102551.53;;;5.69;100.00
51460;BME280;37534;39.772;2.718;2023-02-19T01:34:26;102547.25;;;5.70;100.00
51460;BME280;37534;39.772;2.718;2023-02-19T01:36:54;102543.28;;;5.81;100.00
51460;BME280;37534;39.772;2.718;2023-02-19T01:39:20;102538.59;;;6.00;100.00
51460;BME280;37534;39.772;2.718;2023-02-19T01:41:45;102531.69;;;5.96;100.00
51460;BME280;37534;39.772;2.718;2023-02-19T01:46:40;102544.56;;;5.64;100.00
51460;BME280;37534;39.772;2.718;2023-02-19T01:49:13;102536.47;;;5.47;100.00
51460;BME280;37534;39.772;2.718;2023-02-19T01:52:05;102545.91;;;5.48;100.00
51460;BME280;37534;39.772;2.718;2023-02-19T01:54:31;102536.31;;;5.77;100.00
51460;BME280;37534;39.772;2.718;2023-02-19T01:57:00;102533.81;;;5.79;100.00
51460;BME280;37534;39.772;2.718;2023-02-19T01:59:28;102531.19;;;5.76;100.00
51460;BME280;37534;39.772;2.718;2023-02-19T02:01:55;102522.59;;;5.72;100.00
51460;BME280;37534;39.772;2.718;2023-02-19T02:04:21;102512.69;;;5.51;100.00
51460;BME280;37534;39.772;2.718;2023-02-19T02:06:50;102511.69;;;5.44;100.00
51460;BME280;37534;39.772;2.718;2023-02-19T02:09:18;102512.41;;;5.39;100.00
51460;BME280;37534;39.772;2.718;2023-02-19T02:12:03;102495.06;;;5.28;100.00
51460;BME280;37534;39.772;2.718;2023-02-19T02:14:32;102504.59;;;5.34;100.00
51460;BME280;37534;39.772;2.718;2023-02-19T02:20:15;102503.84;;;5.38;100.00
51460;BME280;37534;39.772;2.718;2023-02-19T02:31:04;102497.25;;;5.48;100.00
51460;BME280;37534;39.772;2.718;2023-02-19T02:36:31;102481.03;;;5.47;100.00
51460;BME280;37534;39.772;2.718;2023-02-19T02:38:56;102473.66;;;5.25;100.00
51460;BME280;37534;39.772;2.718;2023-02-19T02:41:23;102483.84;;;5.23;100.00
51460;BME280;37534;39.772;2.718;2023-02-19T02:43:49;102475.91;;;5.12;100.00
51460;BME280;37534;39.772;2.718;2023-02-19T02:46:19;102475.69;;;5.03;100.00
51460;BME280;37534;39.772;2.718;2023-02-19T02:48:49;102471.06;;;4.90;100.00
51460;BME280;37534;39.772;2.718;2023-02-19T02:51:30;102474.53;;;4.92;100.00
51460;BME280;37534;39.772;2.718;2023-02-19T02:56:42;102472.16;;;4.98;100.00
51460;BME280;37534;39.772;2.718;2023-02-19T02:59:10;102472.91;;;4.94;100.00
51460;BME280;37534;39.772;2.718;2023-02-19T03:04:43;102467.44;;;5.13;100.00
51460;BME280;37534;39.772;2.718;2023-02-19T03:07:36;102465.81;;;5.17;100.00
51460;BME280;37534;39.772;2.718;2023-02-19T03:10:06;102450.19;;;5.06;100.00
51460;BME280;37534;39.772;2.718;2023-02-19T03:12:33;102456.91;;;5.03;100.00
51460;BME280;37534;39.772;2.718;2023-02-19T03:15:22;102462.72;;;4.97;100.00
51460;BME280;37534;39.772;2.718;2023-02-19T03:18:08;102453.97;;;4.87;100.00
51460;BME280;37534;39.772;2.718;2023-02-19T03:20:56;102459.06;;;4.86;100.00
51460;BME280;37534;39.772;2.718;2023-02-19T03:23:27;102468.69;;;4.96;100.00
51460;BME280;37534;39.772;2.718;2023-02-19T03:26:14;102461.91;;;4.98;100.00
51460;BME280;37534;39.772;2.718;2023-02-19T03:28:42;102454.16;;;4.95;100.00
51460;BME280;37534;39.772;2.718;2023-02-19T03:31:30;102457.03;;;5.07;100.00
51460;BME280;37534;39.772;2.718;2023-02-19T03:34:04;102458.88;;;5.13;100.00
51460;BME280;37534;39.772;2.718;2023-02-19T03:36:41;102443.84;;;4.90;100.00
51460;BME280;37534;39.772;2.718;2023-02-19T03:39:10;102445.28;;;4.81;100.00
51460;BME280;37534;39.772;2.718;2023-02-19T03:42:05;102456.16;;;4.73;100.00
51460;BME280;37534;39.772;2.718;2023-02-19T03:44:57;102453.75;;;4.80;100.00
51460;BME280;37534;39.772;2.718;2023-02-19T03:47:41;102447.56;;;5.03;100.00
51460;BME280;37534;39.772;2.718;2023-02-19T03:50:15;102454.56;;;5.10;100.00
51460;BME280;37534;39.772;2.718;2023-02-19T03:52:46;102439.94;;;5.05;100.00
51460;BME280;37534;39.772;2.718;2023-02-19T03:55:21;102442.81;;;4.84;100.00
51460;BME280;37534;39.772;2.718;2023-02-19T03:57:55;102443.97;;;4.63;100.00
51460;BME280;37534;39.772;2.718;2023-02-19T04:03:19;102434.16;;;4.47;100.00
51460;BME280;37534;39.772;2.718;2023-02-19T04:05:52;102435.91;;;4.48;100.00
51460;BME280;37534;39.772;2.718;2023-02-19T04:08:21;102439.50;;;4.56;100.00
51460;BME280;37534;39.772;2.718;2023-02-19T04:10:49;102456.97;;;4.72;100.00
51460;BME280;37534;39.772;2.718;2023-02-19T04:13:22;102455.00;;;4.61;100.00
51460;BME280;37534;39.772;2.718;2023-02-19T04:15:50;102453.72;;;4.45;100.00
51460;BME280;37534;39.772;2.718;2023-02-19T04:18:21;102458.63;;;4.38;100.00
51460;BME280;37534;39.772;2.718;2023-02-19T04:20:49;102453.41;;;4.34;100.00
51460;BME280;37534;39.772;2.718;2023-02-19T04:23:19;102466.41;;;4.42;100.00
51460;BME280;37534;39.772;2.718;2023-02-19T04:25:49;102473.06;;;4.36;100.00
51460;BME280;37534;39.772;2.718;2023-02-19T04:28:17;102460.44;;;4.41;100.00
51460;BME280;37534;39.772;2.718;2023-02-19T04:30:43;102465.59;;;4.43;100.00
51460;BME280;37534;39.772;2.718;2023-02-19T04:33:09;102469.94;;;4.47;100.00
51460;BME280;37534;39.772;2.718;2023-02-19T04:35:34;102459.56;;;4.41;100.00
51460;BME280;37534;39.772;2.718;2023-02-19T04:38:00;102458.28;;;4.26;100.00
51460;BME280;37534;39.772;2.718;2023-02-19T04:40:25;102453.84;;;4.19;100.00
51460;BME280;37534;39.772;2.718;2023-02-19T04:42:51;102453.69;;;4.13;100.00
51460;BME280;37534;39.772;2.718;2023-02-19T04:45:17;102456.22;;;4.13;100.00
51460;BME280;37534;39.772;2.718;2023-02-19T04:47:42;102450.91;;;4.05;100.00
51460;BME280;37534;39.772;2.718;2023-02-19T04:50:08;102459.38;;;4.04;100.00
51460;BME280;37534;39.772;2.718;2023-02-19T04:52:34;102457.69;;;4.05;100.00
51460;BME280;37534;39.772;2.718;2023-02-19T04:55:00;102460.44;;;4.11;100.00
51460;BME280;37534;39.772;2.718;2023-02-19T04:57:26;102449.88;;;4.29;100.00
51460;BME280;37534;39.772;2.718;2023-02-19T04:59:51;102452.22;;;4.21;100.00
51460;BME280;37534;39.772;2.718;2023-02-19T05:02:17;102464.06;;;4.19;100.00
51460;BME280;37534;39.772;2.718;2023-02-19T05:04:43;102454.56;;;4.15;100.00
51460;BME280;37534;39.772;2.718;2023-02-19T05:07:08;102471.06;;;4.25;100.00
51460;BME280;37534;39.772;2.718;2023-02-19T05:09:34;102465.91;;;4.23;100.00
51460;BME280;37534;39.772;2.718;2023-02-19T05:11:59;102469.00;;;4.13;100.00
51460;BME280;37534;39.772;2.718;2023-02-19T05:14:25;102473.91;;;4.07;100.00
51460;BME280;37534;39.772;2.718;2023-02-19T05:16:51;102463.50;;;3.99;100.00
51460;BME280;37534;39.772;2.718;2023-02-19T05:19:16;102472.75;;;3.95;100.00
51460;BME280;37534;39.772;2.718;2023-02-19T05:21:42;102478.69;;;3.94;100.00
51460;BME280;37534;39.772;2.718;2023-02-19T05:24:08;102474.25;;;3.89;100.00
51460;BME280;37534;39.772;2.718;2023-02-19T05:26:33;102488.72;;;3.88;100.00
51460;BME280;37534;39.772;2.718;2023-02-19T05:28:59;102484.19;;;3.79;100.00
51460;BME280;37534;39.772;2.718;2023-02-19T05:31:25;102486.47;;;3.99;100.00
51460;BME280;37534;39.772;2.718;2023-02-19T05:33:50;102492.53;;;4.03;100.00
51460;BME280;37534;39.772;2.718;2023-02-19T05:36:19;102463.63;;;3.75;100.00
51460;BME280;37534;39.772;2.718;2023-02-19T05:38:46;102490.16;;;3.80;100.00
51460;BME280;37534;39.772;2.718;2023-02-19T05:41:20;102490.19;;;3.81;100.00
51460;BME280;37534;39.772;2.718;2023-02-19T05:43:47;102479.50;;;3.65;100.00
51460;BME280;37534;39.772;2.718;2023-02-19T05:46:15;102484.50;;;3.61;100.00
51460;BME280;37534;39.772;2.718;2023-02-19T05:48:42;102478.38;;;3.56;100.00
51460;BME280;37534;39.772;2.718;2023-02-19T05:51:14;102488.88;;;3.66;100.00
51460;BME280;37534;39.772;2.718;2023-02-19T05:53:40;102480.69;;;3.76;100.00
51460;BME280;37534;39.772;2.718;2023-02-19T05:58:50;102500.72;;;3.64;100.00
51460;BME280;37534;39.772;2.718;2023-02-19T06:01:17;102493.75;;;3.58;100.00
51460;BME280;37534;39.772;2.718;2023-02-19T06:03:43;102487.47;;;3.48;100.00
51460;BME280;37534;39.772;2.718;2023-02-19T06:06:12;102504.63;;;3.52;100.00
51460;BME280;37534;39.772;2.718;2023-02-19T06:08:38;102492.78;;;3.54;100.00
51460;BME280;37534;39.772;2.718;2023-02-19T06:11:04;102496.78;;;3.73;100.00
51460;BME280;37534;39.772;2.718;2023-02-19T06:13:29;102493.44;;;3.76;100.00
51460;BME280;37534;39.772;2.718;2023-02-19T06:15:55;102501.00;;;3.73;100.00
51460;BME280;37534;39.772;2.718;2023-02-19T06:18:21;102505.00;;;3.65;100.00
51460;BME280;37534;39.772;2.718;2023-02-19T06:20:46;102510.00;;;3.61;100.00
51460;BME280;37534;39.772;2.718;2023-02-19T06:23:12;102494.31;;;3.49;100.00
51460;BME280;37534;39.772;2.718;2023-02-19T06:25:37;102502.06;;;3.52;100.00
51460;BME280;37534;39.772;2.718;2023-02-19T06:28:03;102501.16;;;3.50;100.00
51460;BME280;37534;39.772;2.718;2023-02-19T06:30:29;102490.84;;;3.47;100.00
51460;BME280;37534;39.772;2.718;2023-02-19T06:32:55;102499.63;;;3.55;100.00
51460;BME280;37534;39.772;2.718;2023-02-19T06:35:21;102498.16;;;3.64;100.00
51460;BME280;37534;39.772;2.718;2023-02-19T06:37:47;102505.25;;;3.72;100.00
51460;BME280;37534;39.772;2.718;2023-02-19T06:40:13;102502.00;;;3.78;100.00
51460;BME280;37534;39.772;2.718;2023-02-19T06:42:38;102505.56;;;3.83;100.00
51460;BME280;37534;39.772;2.718;2023-02-19T06:45:04;102503.38;;;3.67;100.00
51460;BME280;37534;39.772;2.718;2023-02-19T06:47:31;102505.72;;;3.60;100.00
51460;BME280;37534;39.772;2.718;2023-02-19T06:49:58;102511.44;;;3.53;100.00
51460;BME280;37534;39.772;2.718;2023-02-19T06:52:25;102509.78;;;3.54;100.00
51460;BME280;37534;39.772;2.718;2023-02-19T06:54:50;102503.09;;;3.57;100.00
51460;BME280;37534;39.772;2.718;2023-02-19T06:57:16;102502.53;;;3.68;100.00
51460;BME280;37534;39.772;2.718;2023-02-19T06:59:43;102514.06;;;3.82;100.00
51460;BME280;37534;39.772;2.718;2023-02-19T07:02:11;102517.00;;;3.94;100.00
51460;BME280;37534;39.772;2.718;2023-02-19T07:04:37;102528.41;;;4.06;100.00
51460;BME280;37534;39.772;2.718;2023-02-19T07:07:03;102520.59;;;4.01;100.00
51460;BME280;37534;39.772;2.718;2023-02-19T07:09:29;102527.91;;;3.90;100.00
51460;BME280;37534;39.772;2.718;2023-02-19T07:11:54;102528.66;;;3.86;100.00
51460;BME280;37534;39.772;2.718;2023-02-19T07:14:20;102524.28;;;3.82;100.00
51460;BME280;37534;39.772;2.718;2023-02-19T07:16:46;102536.78;;;4.02;100.00
51460;BME280;37534;39.772;2.718;2023-02-19T07:19:12;102536.59;;;3.95;100.00
51460;BME280;37534;39.772;2.718;2023-02-19T07:21:40;102527.06;;;3.90;100.00
51460;BME280;37534;39.772;2.718;2023-02-19T07:24:08;102534.94;;;3.97;100.00
51460;BME280;37534;39.772;2.718;2023-02-19T07:26:34;102538.50;;;4.03;100.00
51460;BME280;37534;39.772;2.718;2023-02-19T07:29:00;102530.72;;;4.27;100.00
51460;BME280;37534;39.772;2.718;2023-02-19T07:31:26;102541.41;;;4.44;100.00
51460;BME280;37534;39.772;2.718;2023-02-19T07:33:53;102531.03;;;4.37;100.00
51460;BME280;37534;39.772;2.718;2023-02-19T07:36:21;102537.09;;;4.41;100.00
51460;BME280;37534;39.772;2.718;2023-02-19T07:38:52;102547.41;;;4.44;100.00
51460;BME280;37534;39.772;2.718;2023-02-19T07:41:19;102549.22;;;4.48;100.00
51460;BME280;37534;39.772;2.718;2023-02-19T07:43:45;102529.63;;;4.49;100.00
51460;BME280;37534;39.772;2.718;2023-02-19T07:46:12;102541.06;;;4.62;100.00
51460;BME280;37534;39.772;2.718;2023-02-19T07:48:39;102547.22;;;4.68;100.00
51460;BME280;37534;39.772;2.718;2023-02-19T07:51:07;102536.19;;;4.69;100.00
51460;BME280;37534;39.772;2.718;2023-02-19T07:53:34;102527.63;;;4.69;100.00
51460;BME280;37534;39.772;2.718;2023-02-19T07:56:04;102544.25;;;4.85;100.00
51460;BME280;37534;39.772;2.718;2023-02-19T07:58:31;102532.47;;;4.90;100.00
51460;BME280;37534;39.772;2.718;2023-02-19T08:00:57;102543.72;;;4.97;100.00
51460;BME280;37534;39.772;2.718;2023-02-19T08:03:31;102530.91;;;4.95;100.00
51460;BME280;37534;39.772;2.718;2023-02-19T08:05:56;102532.69;;;4.99;100.00
51460;BME280;37534;39.772;2.718;2023-02-19T08:08:22;102536.91;;;4.97;100.00
51460;BME280;37534;39.772;2.718;2023-02-19T08:10:47;102540.75;;;5.13;100.00
51460;BME280;37534;39.772;2.718;2023-02-19T08:13:31;102530.88;;;5.27;100.00
51460;BME280;37534;39.772;2.718;2023-02-19T08:18:28;102535.69;;;7.11;100.00
51460;BME280;37534;39.772;2.718;2023-02-19T08:20:55;102538.50;;;9.20;100.00
51460;BME280;37534;39.772;2.718;2023-02-19T08:23:21;102546.38;;;11.45;100.00
51460;BME280;37534;39.772;2.718;2023-02-19T08:25:48;102559.28;;;13.55;100.00
51460;BME280;37534;39.772;2.718;2023-02-19T08:28:14;102556.91;;;15.43;89.67
51460;BME280;37534;39.772;2.718;2023-02-19T08:30:42;102552.88;;;17.02;75.11
51460;BME280;37534;39.772;2.718;2023-02-19T08:33:13;102560.78;;;18.02;64.74
51460;BME280;37534;39.772;2.718;2023-02-19T08:35:40;102562.09;;;17.17;60.59
51460;BME280;37534;39.772;2.718;2023-02-19T08:38:08;102556.41;;;16.19;61.99
51460;BME280;37534;39.772;2.718;2023-02-19T08:40:36;102559.63;;;16.31;62.94
51460;BME280;37534;39.772;2.718;2023-02-19T08:43:07;102559.97;;;16.97;60.04
51460;BME280;37534;39.772;2.718;2023-02-19T08:45:33;102568.94;;;17.90;54.90
51460;BME280;37534;39.772;2.718;2023-02-19T08:47:59;102571.66;;;18.48;52.35
51460;BME280;37534;39.772;2.718;2023-02-19T08:50:25;102556.66;;;16.89;56.07
51460;BME280;37534;39.772;2.718;2023-02-19T08:52:51;102564.16;;;18.37;53.60
51460;BME280;37534;39.772;2.718;2023-02-19T08:55:17;102566.69;;;18.97;50.41
51460;BME280;37534;39.772;2.718;2023-02-19T08:57:43;102569.16;;;21.19;47.11
51460;BME280;37534;39.772;2.718;2023-02-19T09:00:09;102560.19;;;22.64;41.26
51460;BME280;37534;39.772;2.718;2023-02-19T09:02:35;102555.84;;;24.36;38.13
51460;BME280;37534;39.772;2.718;2023-02-19T09:05:03;102557.72;;;25.56;37.09
51460;BME280;37534;39.772;2.718;2023-02-19T09:07:30;102556.97;;;26.26;33.95
51460;BME280;37534;39.772;2.718;2023-02-19T09:09:56;102568.59;;;26.92;33.17
51460;BME280;37534;39.772;2.718;2023-02-19T09:12:23;102572.97;;;27.06;31.65
51460;BME280;37534;39.772;2.718;2023-02-19T09:14:49;102547.88;;;27.25;31.61
51460;BME280;37534;39.772;2.718;2023-02-19T09:17:15;102568.09;;;27.92;31.42
51460;BME280;37534;39.772;2.718;2023-02-19T09:19:41;102567.81;;;28.57;29.74
51460;BME280;37534;39.772;2.718;2023-02-19T09:22:06;102573.53;;;29.24;29.22
51460;BME280;37534;39.772;2.718;2023-02-19T09:24:32;102555.88;;;28.02;28.57
51460;BME280;37534;39.772;2.718;2023-02-19T09:26:58;102583.91;;;28.91;27.62
51460;BME280;37534;39.772;2.718;2023-02-19T09:29:25;102587.19;;;29.19;28.75
51460;BME280;37534;39.772;2.718;2023-02-19T09:31:55;102581.81;;;28.59;29.47
51460;BME280;37534;39.772;2.718;2023-02-19T09:34:21;102592.94;;;26.85;29.01
51460;BME280;37534;39.772;2.718;2023-02-19T09:36:50;102593.53;;;25.76;31.75
51460;BME280;37534;39.772;2.718;2023-02-19T09:39:16;102586.13;;;25.53;29.22
51460;BME280;37534;39.772;2.718;2023-02-19T09:41:57;102594.25;;;25.19;31.23
51460;BME280;37534;39.772;2.718;2023-02-19T09:44:27;102592.09;;;24.32;31.89
51460;BME280;37534;39.772;2.718;2023-02-19T09:46:54;102590.34;;;26.70;30.38
51460;BME280;37534;39.772;2.718;2023-02-19T09:51:57;102587.69;;;29.35;26.80
51460;BME280;37534;39.772;2.718;2023-02-19T09:54:27;102592.94;;;29.71;26.46
51460;BME280;37534;39.772;2.718;2023-02-19T09:56:55;102574.28;;;29.01;26.92
51460;BME280;37534;39.772;2.718;2023-02-19T09:59:38;102581.53;;;29.46;27.72
51460;BME280;37534;39.772;2.718;2023-02-19T10:02:17;102590.94;;;30.52;27.15
51460;BME280;37534;39.772;2.718;2023-02-19T10:04:46;102584.72;;;30.19;27.48
51460;BME280;37534;39.772;2.718;2023-02-19T10:07:14;102589.03;;;30.86;27.02
51460;BME280;37534;39.772;2.718;2023-02-19T10:09:41;102574.91;;;31.49;26.27
51460;BME280;37534;39.772;2.718;2023-02-19T10:12:23;102562.66;;;31.25;25.65
51460;BME280;37534;39.772;2.718;2023-02-19T10:14:52;102576.66;;;30.97;26.93
51460;BME280;37534;39.772;2.718;2023-02-19T10:17:25;102564.00;;;31.41;26.38
51460;BME280;37534;39.772;2.718;2023-02-19T10:19:52;102564.16;;;31.18;26.22
51460;BME280;37534;39.772;2.718;2023-02-19T10:22:18;102563.34;;;31.70;25.83
51460;BME280;37534;39.772;2.718;2023-02-19T10:24:48;102569.03;;;31.55;26.04
51460;BME280;37534;39.772;2.718;2023-02-19T10:27:16;102562.06;;;32.05;25.95
51460;BME280;37534;39.772;2.718;2023-02-19T10:29:42;102562.81;;;32.16;26.15
51460;BME280;37534;39.772;2.718;2023-02-19T10:32:17;102559.72;;;31.50;26.84
51460;BME280;37534;39.772;2.718;2023-02-19T10:34:46;102554.50;;;32.10;26.00
51460;BME280;37534;39.772;2.718;2023-02-19T10:37:14;102561.16;;;31.94;25.63
51460;BME280;37534;39.772;2.718;2023-02-19T10:39:42;102568.00;;;32.18;25.24
51460;BME280;37534;39.772;2.718;2023-02-19T10:42:17;102560.47;;;32.43;25.57
51460;BME280;37534;39.772;2.718;2023-02-19T10:44:46;102564.09;;;32.42;25.05
51460;BME280;37534;39.772;2.718;2023-02-19T10:47:17;102567.59;;;32.42;25.48
51460;BME280;37534;39.772;2.718;2023-02-19T10:49:44;102561.28;;;33.02;24.34
51460;BME280;37534;39.772;2.718;2023-02-19T10:52:30;102555.91;;;32.14;24.39
51460;BME280;37534;39.772;2.718;2023-02-19T10:55:24;102556.56;;;32.66;24.63
51460;BME280;37534;39.772;2.718;2023-02-19T10:57:50;102555.59;;;33.44;25.38
51460;BME280;37534;39.772;2.718;2023-02-19T11:02:44;102551.75;;;33.84;25.66
51460;BME280;37534;39.772;2.718;2023-02-19T11:07:49;102539.53;;;35.33;24.42
51460;BME280;37534;39.772;2.718;2023-02-19T11:10:37;102544.28;;;35.39;24.48
51460;BME280;37534;39.772;2.718;2023-02-19T11:13:05;102534.53;;;35.38;24.10
51460;BME280;37534;39.772;2.718;2023-02-19T11:15:36;102537.19;;;34.14;25.47
51460;BME280;37534;39.772;2.718;2023-02-19T11:20:48;102535.72;;;34.30;25.10
51460;BME280;37534;39.772;2.718;2023-02-19T11:23:27;102531.13;;;33.39;26.16
51460;BME280;37534;39.772;2.718;2023-02-19T11:25:54;102530.06;;;32.24;27.35
51460;BME280;37534;39.772;2.718;2023-02-19T11:28:29;102527.63;;;31.61;27.87
51460;BME280;37534;39.772;2.718;2023-02-19T11:36:40;102510.63;;;31.52;28.58
51460;BME280;37534;39.772;2.718;2023-02-19T11:53:39;102513.97;;;29.26;32.74
51460;BME280;37534;39.772;2.718;2023-02-19T11:56:20;102498.25;;;29.68;32.29
51460;BME280;37534;39.772;2.718;2023-02-19T12:21:09;102466.41;;;31.59;29.98
51460;BME280;37534;39.772;2.718;2023-02-19T12:24:06;102459.44;;;31.78;29.77
51460;BME280;37534;39.772;2.718;2023-02-19T12:26:58;102460.28;;;31.98;29.69
51460;BME280;37534;39.772;2.718;2023-02-19T12:32:57;102449.09;;;32.33;28.67
51460;BME280;37534;39.772;2.718;2023-02-19T12:35:49;102445.47;;;32.25;29.22
51460;BME280;37534;39.772;2.718;2023-02-19T12:38:23;102432.59;;;31.39;30.69
51460;BME280;37534;39.772;2.718;2023-02-19T12:43:28;102432.69;;;30.33;31.59
51460;BME280;37534;39.772;2.718;2023-02-19T12:46:02;102435.34;;;30.33;32.41
51460;BME280;37534;39.772;2.718;2023-02-19T12:48:45;102429.25;;;30.10;32.03
51460;BME280;37534;39.772;2.718;2023-02-19T12:51:22;102430.31;;;29.87;32.53
51460;BME280;37534;39.772;2.718;2023-02-19T12:53:53;102430.69;;;29.82;32.37
51460;BME280;37534;39.772;2.718;2023-02-19T12:56:28;102416.34;;;29.28;33.13
51460;BME280;37534;39.772;2.718;2023-02-19T12:59:07;102406.94;;;28.31;35.50
51460;BME280;37534;39.772;2.718;2023-02-19T13:02:18;102407.47;;;28.71;33.92
51460;BME280;37534;39.772;2.718;2023-02-19T13:07:18;102409.50;;;28.79;34.04
51460;BME280;37534;39.772;2.718;2023-02-19T13:09:55;102401.28;;;28.71;34.59
51460;BME280;37534;39.772;2.718;2023-02-19T13:12:29;102405.00;;;28.33;35.05
51460;BME280;37534;39.772;2.718;2023-02-19T13:15:00;102397.44;;;28.39;35.14
51460;BME280;37534;39.772;2.718;2023-02-19T13:17:33;102396.22;;;28.68;34.91
51460;BME280;37534;39.772;2.718;2023-02-19T13:23:12;102401.91;;;28.97;34.64
51460;BME280;37534;39.772;2.718;2023-02-19T13:26:04;102398.47;;;29.19;34.38
51460;BME280;37534;39.772;2.718;2023-02-19T13:37:20;102378.25;;;28.82;34.67
51460;BME280;37534;39.772;2.718;2023-02-19T13:39:48;102374.00;;;28.57;35.03
51460;BME280;37534;39.772;2.718;2023-02-19T13:42:26;102369.09;;;28.40;35.63
51460;BME280;37534;39.772;2.718;2023-02-19T13:44:53;102379.44;;;27.83;36.47
51460;BME280;37534;39.772;2.718;2023-02-19T13:52:45;102367.69;;;27.25;38.11
51460;BME280;37534;39.772;2.718;2023-02-19T13:55:43;102373.97;;;26.98;37.99
51460;BME280;37534;39.772;2.718;2023-02-19T14:01:05;102365.59;;;26.91;39.02
51460;BME280;37534;39.772;2.718;2023-02-19T14:03:54;102369.41;;;27.00;38.34
51460;BME280;37534;39.772;2.718;2023-02-19T14:06:20;102359.84;;;27.49;37.76
51460;BME280;37534;39.772;2.718;2023-02-19T14:11:14;102359.28;;;27.94;36.57
51460;BME280;37534;39.772;2.718;2023-02-19T14:19:13;102346.47;;;27.50;37.51
51460;BME280;37534;39.772;2.718;2023-02-19T14:21:39;102341.19;;;27.38;37.74
51460;BME280;37534;39.772;2.718;2023-02-19T14:24:12;102338.09;;;26.94;37.69
51460;BME280;37534;39.772;2.718;2023-02-19T14:26:42;102339.47;;;26.74;38.73
51460;BME280;37534;39.772;2.718;2023-02-19T14:29:12;102329.41;;;26.92;38.29
51460;BME280;37534;39.772;2.718;2023-02-19T14:31:43;102334.81;;;26.78;38.32
51460;BME280;37534;39.772;2.718;2023-02-19T14:34:21;102335.34;;;26.83;38.53
51460;BME280;37534;39.772;2.718;2023-02-19T14:36:52;102325.53;;;26.19;39.60
51460;BME280;37534;39.772;2.718;2023-02-19T14:39:40;102326.97;;;26.76;38.94
51460;BME280;37534;39.772;2.718;2023-02-19T14:42:16;102314.53;;;27.15;38.44
51460;BME280;37534;39.772;2.718;2023-02-19T14:44:57;102307.09;;;27.33;38.34
51460;BME280;37534;39.772;2.718;2023-02-19T14:47:26;102309.50;;;27.23;38.37
51460;BME280;37534;39.772;2.718;2023-02-19T14:50:02;102294.78;;;27.32;38.13
51460;BME280;37534;39.772;2.718;2023-02-19T14:52:41;102300.09;;;27.32;37.70
51460;BME280;37534;39.772;2.718;2023-02-19T14:57:47;102290.72;;;27.39;38.22
51460;BME280;37534;39.772;2.718;2023-02-19T15:00:24;102289.25;;;27.83;36.67
51460;BME280;37534;39.772;2.718;2023-02-19T15:02:52;102292.31;;;27.66;37.49
51460;BME280;37534;39.772;2.718;2023-02-19T15:05:29;102286.56;;;27.72;38.07
51460;BME280;37534;39.772;2.718;2023-02-19T15:08:00;102288.44;;;28.18;36.73